sensor_id;sensor_type;location;lat;lon;timestamp;pressure;altitude;pressure_sealevel;temperature;humidity
19789;BME280;10054;59.332;18.244;2023-05-09T00:00:03;102069.96;;;6.61;63.89
19789;BME280;10054;59.332;18.244;2023-05-09T00:02:38;102066.92;;;6.60;64.05
19789;BME280;10054;59.332;18.244;2023-05-09T00:05:08;102062.69;;;6.54;64.07
19789;BME280;10054;59.332;18.244;2023-05-09T00:07:37;102065.41;;;6.50;64.38
19789;BME280;10054;59.332;18.244;2023-05-09T00:10:08;102068.03;;;6.50;64.78
19789;BME280;10054;59.332;18.244;2023-05-09T00:12:37;102060.65;;;6.48;65.09
19789;BME280;10054;59.332;18.244;2023-05-09T00:15:06;102062.06;;;6.43;65.22
19789;BME280;10054;59.332;18.244;2023-05-09T00:17:35;102056.82;;;6.43;65.68
19789;BME280;10054;59.332;18.244;2023-05-09T00:20:06;102051.58;;;6.43;66.28
19789;BME280;10054;59.332;18.244;2023-05-09T00:22:38;102053.44;;;6.38;66.06
19789;BME280;10054;59.332;18.244;2023-05-09T00:25:11;102050.41;;;6.37;66.50
19789;BME280;10054;59.332;18.244;2023-05-09T00:27:39;102052.16;;;6.37;66.64
19789;BME280;10054;59.332;18.244;2023-05-09T00:30:09;102051.37;;;6.33;67.28
19789;BME280;10054;59.332;18.244;2023-05-09T00:32:37;102051.47;;;6.29;67.12
19789;BME280;10054;59.332;18.244;2023-05-09T00:35:08;102040.57;;;6.28;67.49
19789;BME280;10054;59.332;18.244;2023-05-09T00:37:37;102043.22;;;6.26;67.49
19789;BME280;10054;59.332;18.244;2023-05-09T00:40:08;102041.56;;;6.22;67.68
19789;BME280;10054;59.332;18.244;2023-05-09T00:42:37;102048.15;;;6.20;67.99
19789;BME280;10054;59.332;18.244;2023-05-09T00:45:06;102037.70;;;6.19;68.06
19789;BME280;10054;59.332;18.244;2023-05-09T00:47:35;102038.25;;;6.14;68.07
19789;BME280;10054;59.332;18.244;2023-05-09T00:50:06;102033.52;;;6.10;68.56
19789;BME280;10054;59.332;18.244;2023-05-09T00:52:36;102033.07;;;6.11;68.67
19789;BME280;10054;59.332;18.244;2023-05-09T00:55:07;102035.38;;;6.05;68.89
19789;BME280;10054;59.332;18.244;2023-05-09T00:57:36;102035.44;;;6.02;69.08
19789;BME280;10054;59.332;18.244;2023-05-09T01:00:06;102041.54;;;6.03;69.65
19789;BME280;10054;59.332;18.244;2023-05-09T01:02:44;102032.38;;;6.03;70.14
19789;BME280;10054;59.332;18.244;2023-05-09T01:05:14;102031.57;;;5.99;69.97
19789;BME280;10054;59.332;18.244;2023-05-09T01:07:49;102021.58;;;5.97;70.21
19789;BME280;10054;59.332;18.244;2023-05-09T01:13:03;102033.94;;;5.92;71.17
19789;BME280;10054;59.332;18.244;2023-05-09T01:16:00;102023.49;;;5.90;71.83
19789;BME280;10054;59.332;18.244;2023-05-09T01:18:49;102018.67;;;5.91;72.17
19789;BME280;10054;59.332;18.244;2023-05-09T01:21:24;102024.00;;;5.85;72.00
19789;BME280;10054;59.332;18.244;2023-05-09T01:29:30;102021.86;;;5.83;72.17
19789;BME280;10054;59.332;18.244;2023-05-09T01:32:12;102023.16;;;5.83;72.62
19789;BME280;10054;59.332;18.244;2023-05-09T01:34:32;102014.39;;;5.86;72.88
19789;BME280;10054;59.332;18.244;2023-05-09T01:37:03;102010.10;;;5.82;73.02
19789;BME280;10054;59.332;18.244;2023-05-09T01:39:33;102017.13;;;5.80;73.17
19789;BME280;10054;59.332;18.244;2023-05-09T01:42:04;102001.86;;;5.79;73.54
19789;BME280;10054;59.332;18.244;2023-05-09T01:44:40;102008.41;;;5.79;73.87
19789;BME280;10054;59.332;18.244;2023-05-09T01:47:10;102005.89;;;5.75;73.91
19789;BME280;10054;59.332;18.244;2023-05-09T01:49:41;101998.03;;;5.75;74.48
19789;BME280;10054;59.332;18.244;2023-05-09T01:52:14;102001.92;;;5.76;75.05
19789;BME280;10054;59.332;18.244;2023-05-09T01:54:44;101995.89;;;5.73;75.39
19789;BME280;10054;59.332;18.244;2023-05-09T01:57:14;101992.86;;;5.72;76.04
19789;BME280;10054;59.332;18.244;2023-05-09T01:59:44;101996.34;;;5.72;76.83
19789;BME280;10054;59.332;18.244;2023-05-09T02:02:14;101991.61;;;5.69;77.02
19789;BME280;10054;59.332;18.244;2023-05-09T02:04:44;101996.43;;;5.68;77.33
19789;BME280;10054;59.332;18.244;2023-05-09T02:07:14;101995.56;;;5.67;77.98
19789;BME280;10054;59.332;18.244;2023-05-09T02:09:45;101997.33;;;5.67;78.11
19789;BME280;10054;59.332;18.244;2023-05-09T02:12:13;101999.08;;;5.66;78.41
19789;BME280;10054;59.332;18.244;2023-05-09T02:14:43;101991.61;;;5.69;79.13
19789;BME280;10054;59.332;18.244;2023-05-09T02:17:11;101996.81;;;5.70;79.45
19789;BME280;10054;59.332;18.244;2023-05-09T02:19:42;101995.16;;;5.66;80.06
19789;BME280;10054;59.332;18.244;2023-05-09T02:22:13;101997.35;;;5.65;80.71
19789;BME280;10054;59.332;18.244;2023-05-09T02:24:42;101987.27;;;5.68;81.15
19789;BME280;10054;59.332;18.244;2023-05-09T02:27:12;101987.30;;;5.66;81.08
19789;BME280;10054;59.332;18.244;2023-05-09T02:29:45;101976.83;;;5.66;81.73
19789;BME280;10054;59.332;18.244;2023-05-09T02:32:16;101973.73;;;5.68;82.36
19789;BME280;10054;59.332;18.244;2023-05-09T02:34:46;101975.07;;;5.67;82.73
19789;BME280;10054;59.332;18.244;2023-05-09T02:37:17;101972.04;;;5.66;83.30
19789;BME280;10054;59.332;18.244;2023-05-09T02:39:47;101971.56;;;5.68;83.94
19789;BME280;10054;59.332;18.244;2023-05-09T02:42:20;101973.31;;;5.67;84.50
19789;BME280;10054;59.332;18.244;2023-05-09T02:44:48;101973.76;;;5.67;84.40
19789;BME280;10054;59.332;18.244;2023-05-09T02:47:17;101976.28;;;5.71;85.28
19789;BME280;10054;59.332;18.244;2023-05-09T02:49:46;101969.70;;;5.73;85.99
19789;BME280;10054;59.332;18.244;2023-05-09T02:52:16;101972.39;;;5.70;86.09
19789;BME280;10054;59.332;18.244;2023-05-09T02:54:45;101972.77;;;5.72;86.59
19789;BME280;10054;59.332;18.244;2023-05-09T02:57:14;101975.36;;;5.74;87.05
19789;BME280;10054;59.332;18.244;2023-05-09T02:59:44;101967.50;;;5.74;86.77
19789;BME280;10054;59.332;18.244;2023-05-09T03:02:13;101971.81;;;5.76;87.33
19789;BME280;10054;59.332;18.244;2023-05-09T03:04:44;101967.76;;;5.82;87.89
19789;BME280;10054;59.332;18.244;2023-05-09T03:07:13;101969.93;;;5.83;88.11
19789;BME280;10054;59.332;18.244;2023-05-09T03:09:42;101966.77;;;5.88;88.83
19789;BME280;10054;59.332;18.244;2023-05-09T03:12:11;101975.32;;;5.96;89.25
19789;BME280;10054;59.332;18.244;2023-05-09T03:14:40;101967.40;;;5.99;89.98
19789;BME280;10054;59.332;18.244;2023-05-09T03:17:08;101971.67;;;6.03;89.95
19789;BME280;10054;59.332;18.244;2023-05-09T03:19:38;101975.84;;;6.12;91.26
19789;BME280;10054;59.332;18.244;2023-05-09T03:22:07;101971.95;;;6.30;90.29
19789;BME280;10054;59.332;18.244;2023-05-09T03:24:38;101968.14;;;6.43;90.96
19789;BME280;10054;59.332;18.244;2023-05-09T03:27:07;101970.28;;;6.63;90.38
19789;BME280;10054;59.332;18.244;2023-05-09T03:29:35;101962.06;;;6.92;90.61
19789;BME280;10054;59.332;18.244;2023-05-09T03:32:05;101961.83;;;7.18;89.98
19789;BME280;10054;59.332;18.244;2023-05-09T03:34:34;101956.00;;;7.39;89.77
19789;BME280;10054;59.332;18.244;2023-05-09T03:37:03;101954.58;;;7.57;89.32
19789;BME280;10054;59.332;18.244;2023-05-09T03:39:36;101953.86;;;7.67;89.80
19789;BME280;10054;59.332;18.244;2023-05-09T03:42:05;101956.91;;;7.82;90.17
19789;BME280;10054;59.332;18.244;2023-05-09T03:44:34;101944.17;;;7.98;89.87
19789;BME280;10054;59.332;18.244;2023-05-09T03:47:03;101948.09;;;8.13;88.03
19789;BME280;10054;59.332;18.244;2023-05-09T03:49:33;101944.95;;;8.28;87.35
19789;BME280;10054;59.332;18.244;2023-05-09T03:52:03;101945.66;;;8.48;87.31
19789;BME280;10054;59.332;18.244;2023-05-09T03:54:32;101945.52;;;8.66;86.55
19789;BME280;10054;59.332;18.244;2023-05-09T03:57:01;101944.89;;;8.84;85.73
19789;BME280;10054;59.332;18.244;2023-05-09T03:59:31;101944.47;;;9.08;85.51
19789;BME280;10054;59.332;18.244;2023-05-09T04:02:00;101942.23;;;9.34;84.97
19789;BME280;10054;59.332;18.244;2023-05-09T04:04:29;101936.80;;;9.50;82.10
19789;BME280;10054;59.332;18.244;2023-05-09T04:06:59;101936.23;;;9.65;82.80
19789;BME280;10054;59.332;18.244;2023-05-09T04:09:28;101941.46;;;9.88;81.83
19789;BME280;10054;59.332;18.244;2023-05-09T04:11:57;101941.88;;;10.11;79.79
19789;BME280;10054;59.332;18.244;2023-05-09T04:14:26;101942.50;;;10.30;79.17
19789;BME280;10054;59.332;18.244;2023-05-09T04:16:55;101937.64;;;10.51;78.15
19789;BME280;10054;59.332;18.244;2023-05-09T04:19:24;101938.34;;;10.76;77.56
19789;BME280;10054;59.332;18.244;2023-05-09T04:21:53;101942.37;;;10.95;75.67
19789;BME280;10054;59.332;18.244;2023-05-09T04:24:22;101937.06;;;11.15;74.54
19789;BME280;10054;59.332;18.244;2023-05-09T04:26:51;101935.33;;;11.35;73.49
19789;BME280;10054;59.332;18.244;2023-05-09T04:29:22;101929.14;;;11.55;72.83
19789;BME280;10054;59.332;18.244;2023-05-09T04:31:53;101934.77;;;11.76;71.44
19789;BME280;10054;59.332;18.244;2023-05-09T04:34:23;101937.88;;;11.94;70.63
19789;BME280;10054;59.332;18.244;2023-05-09T04:36:54;101937.78;;;12.14;69.41
19789;BME280;10054;59.332;18.244;2023-05-09T04:39:24;101932.92;;;12.33;68.10
19789;BME280;10054;59.332;18.244;2023-05-09T04:41:54;101936.38;;;12.52;67.59
19789;BME280;10054;59.332;18.244;2023-05-09T04:44:23;101932.70;;;12.72;66.65
19789;BME280;10054;59.332;18.244;2023-05-09T04:46:52;101934.50;;;12.89;65.34
19789;BME280;10054;59.332;18.244;2023-05-09T04:49:21;101933.48;;;13.08;64.81
19789;BME280;10054;59.332;18.244;2023-05-09T04:51:50;101933.09;;;13.25;63.73
19789;BME280;10054;59.332;18.244;2023-05-09T04:54:19;101929.91;;;13.42;62.61
19789;BME280;10054;59.332;18.244;2023-05-09T04:56:49;101912.54;;;13.61;60.94
19789;BME280;10054;59.332;18.244;2023-05-09T04:59:18;101912.54;;;13.61;60.94
19789;BME280;10054;59.332;18.244;2023-05-09T05:01:48;101926.42;;;13.82;60.83
19789;BME280;10054;59.332;18.244;2023-05-09T05:04:18;101929.97;;;13.90;60.04
19789;BME280;10054;59.332;18.244;2023-05-09T05:06:48;101934.98;;;14.03;60.02
19789;BME280;10054;59.332;18.244;2023-05-09T05:09:17;101936.66;;;14.20;59.00
19789;BME280;10054;59.332;18.244;2023-05-09T05:11:47;101936.91;;;14.31;58.31
19789;BME280;10054;59.332;18.244;2023-05-09T05:14:16;101936.33;;;14.41;57.97
19789;BME280;10054;59.332;18.244;2023-05-09T05:16:45;101933.70;;;14.49;56.91
19789;BME280;10054;59.332;18.244;2023-05-09T05:19:14;101931.07;;;14.56;56.93
19789;BME280;10054;59.332;18.244;2023-05-09T05:21:42;101930.33;;;14.61;57.05
19789;BME280;10054;59.332;18.244;2023-05-09T05:24:12;101932.45;;;14.70;57.10
19789;BME280;10054;59.332;18.244;2023-05-09T05:26:41;101933.62;;;14.80;56.48
19789;BME280;10054;59.332;18.244;2023-05-09T05:29:11;101926.70;;;14.85;55.99
19789;BME280;10054;59.332;18.244;2023-05-09T05:31:39;101930.78;;;14.97;55.62
19789;BME280;10054;59.332;18.244;2023-05-09T05:34:08;101933.07;;;15.03;55.03
19789;BME280;10054;59.332;18.244;2023-05-09T05:36:38;101929.38;;;15.06;55.15
19789;BME280;10054;59.332;18.244;2023-05-09T05:39:07;101927.86;;;15.09;54.69
19789;BME280;10054;59.332;18.244;2023-05-09T05:41:36;101926.44;;;15.10;54.25
19789;BME280;10054;59.332;18.244;2023-05-09T05:44:05;101929.48;;;15.19;54.16
19789;BME280;10054;59.332;18.244;2023-05-09T05:46:35;101924.36;;;15.23;53.77
19789;BME280;10054;59.332;18.244;2023-05-09T05:49:04;101923.70;;;15.26;53.97
19789;BME280;10054;59.332;18.244;2023-05-09T05:51:34;101920.38;;;15.30;53.79
19789;BME280;10054;59.332;18.244;2023-05-09T05:54:03;101918.39;;;15.33;53.58
19789;BME280;10054;59.332;18.244;2023-05-09T05:56:33;101913.45;;;15.34;53.53
19789;BME280;10054;59.332;18.244;2023-05-09T05:59:02;101913.26;;;15.44;53.43
19789;BME280;10054;59.332;18.244;2023-05-09T06:01:31;101913.54;;;15.54;53.11
19789;BME280;10054;59.332;18.244;2023-05-09T06:04:01;101911.26;;;15.55;52.75
19789;BME280;10054;59.332;18.244;2023-05-09T06:06:31;101903.97;;;15.59;52.80
19789;BME280;10054;59.332;18.244;2023-05-09T06:08:59;101904.31;;;15.67;52.48
19789;BME280;10054;59.332;18.244;2023-05-09T06:11:28;101905.63;;;15.74;52.40
19789;BME280;10054;59.332;18.244;2023-05-09T06:13:59;101899.44;;;15.81;52.21
19789;BME280;10054;59.332;18.244;2023-05-09T06:16:27;101902.28;;;15.85;51.80
19789;BME280;10054;59.332;18.244;2023-05-09T06:18:56;101895.14;;;15.92;52.01
19789;BME280;10054;59.332;18.244;2023-05-09T06:21:26;101898.46;;;15.96;51.47
19789;BME280;10054;59.332;18.244;2023-05-09T06:23:54;101899.69;;;15.97;50.46
19789;BME280;10054;59.332;18.244;2023-05-09T06:26:23;101894.27;;;15.99;51.31
19789;BME280;10054;59.332;18.244;2023-05-09T06:28:52;101895.78;;;16.03;51.50
19789;BME280;10054;59.332;18.244;2023-05-09T06:31:21;101893.30;;;16.07;51.04
19789;BME280;10054;59.332;18.244;2023-05-09T06:33:51;101894.33;;;16.12;51.23
19789;BME280;10054;59.332;18.244;2023-05-09T06:36:20;101897.34;;;16.20;51.15
19789;BME280;10054;59.332;18.244;2023-05-09T06:38:48;101891.98;;;16.27;51.39
19789;BME280;10054;59.332;18.244;2023-05-09T06:41:19;101892.20;;;16.36;51.19
19789;BME280;10054;59.332;18.244;2023-05-09T06:43:48;101889.50;;;16.43;50.78
19789;BME280;10054;59.332;18.244;2023-05-09T06:46:16;101891.86;;;16.48;50.55
19789;BME280;10054;59.332;18.244;2023-05-09T06:48:45;101889.57;;;16.49;50.23
19789;BME280;10054;59.332;18.244;2023-05-09T06:51:14;101881.10;;;16.50;50.08
19789;BME280;10054;59.332;18.244;2023-05-09T06:53:43;101886.80;;;16.51;50.07
19789;BME280;10054;59.332;18.244;2023-05-09T06:56:12;101895.34;;;16.56;50.44
19789;BME280;10054;59.332;18.244;2023-05-09T06:58:40;101890.92;;;16.69;50.72
19789;BME280;10054;59.332;18.244;2023-05-09T07:01:09;101886.95;;;16.82;50.15
19789;BME280;10054;59.332;18.244;2023-05-09T07:03:38;101887.96;;;16.86;49.57
19789;BME280;10054;59.332;18.244;2023-05-09T07:06:12;101890.27;;;16.98;49.49
19789;BME280;10054;59.332;18.244;2023-05-09T07:08:40;101888.98;;;17.03;49.62
19789;BME280;10054;59.332;18.244;2023-05-09T07:11:09;101882.72;;;17.10;49.10
19789;BME280;10054;59.332;18.244;2023-05-09T07:13:38;101880.37;;;17.18;48.84
19789;BME280;10054;59.332;18.244;2023-05-09T07:16:07;101878.17;;;17.30;48.32
19789;BME280;10054;59.332;18.244;2023-05-09T07:18:36;101874.44;;;17.33;47.68
19789;BME280;10054;59.332;18.244;2023-05-09T07:21:05;101869.14;;;17.38;47.20
19789;BME280;10054;59.332;18.244;2023-05-09T07:23:34;101871.00;;;17.44;47.53
19789;BME280;10054;59.332;18.244;2023-05-09T07:26:03;101867.53;;;17.49;47.51
19789;BME280;10054;59.332;18.244;2023-05-09T07:28:31;101863.94;;;17.55;47.33
19789;BME280;10054;59.332;18.244;2023-05-09T07:31:00;101863.08;;;17.67;47.22
19789;BME280;10054;59.332;18.244;2023-05-09T07:33:29;101861.30;;;17.73;46.35
19789;BME280;10054;59.332;18.244;2023-05-09T07:35:58;101855.59;;;17.72;46.33
19789;BME280;10054;59.332;18.244;2023-05-09T07:38:27;101858.67;;;17.79;45.37
19789;BME280;10054;59.332;18.244;2023-05-09T07:40:56;101852.48;;;17.84;45.65
19789;BME280;10054;59.332;18.244;2023-05-09T07:43:27;101849.59;;;17.87;44.38
19789;BME280;10054;59.332;18.244;2023-05-09T07:45:55;101856.03;;;17.90;44.64
19789;BME280;10054;59.332;18.244;2023-05-09T07:48:23;101847.55;;;17.91;43.92
19789;BME280;10054;59.332;18.244;2023-05-09T07:50:52;101847.94;;;17.97;44.52
19789;BME280;10054;59.332;18.244;2023-05-09T07:53:21;101843.37;;;18.05;43.97
19789;BME280;10054;59.332;18.244;2023-05-09T07:55:50;101849.59;;;18.11;44.00
19789;BME280;10054;59.332;18.244;2023-05-09T07:58:19;101841.48;;;18.18;43.52
19789;BME280;10054;59.332;18.244;2023-05-09T08:00:48;101848.56;;;18.25;43.23
19789;BME280;10054;59.332;18.244;2023-05-09T08:03:16;101844.57;;;18.30;43.02
19789;BME280;10054;59.332;18.244;2023-05-09T08:05:47;101841.20;;;18.39;43.04
19789;BME280;10054;59.332;18.244;2023-05-09T08:08:15;101837.46;;;18.48;43.02
19789;BME280;10054;59.332;18.244;2023-05-09T08:10:44;101843.08;;;18.56;42.31
19789;BME280;10054;59.332;18.244;2023-05-09T08:13:14;101847.45;;;18.57;41.73
19789;BME280;10054;59.332;18.244;2023-05-09T08:15:43;101839.30;;;18.53;41.29
19789;BME280;10054;59.332;18.244;2023-05-09T08:18:11;101831.50;;;18.44;40.53
19789;BME280;10054;59.332;18.244;2023-05-09T08:20:40;101835.03;;;18.45;40.35
19789;BME280;10054;59.332;18.244;2023-05-09T08:23:09;101830.75;;;18.36;40.27
19789;BME280;10054;59.332;18.244;2023-05-09T08:25:37;101824.92;;;18.37;40.45
19789;BME280;10054;59.332;18.244;2023-05-09T08:28:06;101826.51;;;18.39;40.35
19789;BME280;10054;59.332;18.244;2023-05-09T08:30:35;101823.60;;;18.43;40.28
19789;BME280;10054;59.332;18.244;2023-05-09T08:33:03;101818.26;;;18.43;39.80
19789;BME280;10054;59.332;18.244;2023-05-09T08:35:32;101813.65;;;18.45;39.69
19789;BME280;10054;59.332;18.244;2023-05-09T08:38:02;101813.28;;;18.44;39.47
19789;BME280;10054;59.332;18.244;2023-05-09T08:40:35;101804.81;;;18.55;40.09
19789;BME280;10054;59.332;18.244;2023-05-09T08:43:07;101798.15;;;18.66;39.54
19789;BME280;10054;59.332;18.244;2023-05-09T08:45:42;101803.87;;;18.73;39.59
19789;BME280;10054;59.332;18.244;2023-05-09T08:48:09;101798.29;;;18.82;38.82
19789;BME280;10054;59.332;18.244;2023-05-09T08:50:38;101799.99;;;18.88;38.90
19789;BME280;10054;59.332;18.244;2023-05-09T08:53:07;101792.70;;;18.90;38.83
19789;BME280;10054;59.332;18.244;2023-05-09T08:55:36;101790.03;;;18.96;38.34
19789;BME280;10054;59.332;18.244;2023-05-09T08:58:05;101788.81;;;18.94;36.78
19789;BME280;10054;59.332;18.244;2023-05-09T09:00:36;101797.56;;;18.96;37.54
19789;BME280;10054;59.332;18.244;2023-05-09T09:03:07;101796.23;;;19.02;37.40
19789;BME280;10054;59.332;18.244;2023-05-09T09:05:37;101792.83;;;19.11;37.64
19789;BME280;10054;59.332;18.244;2023-05-09T09:08:07;101791.97;;;19.22;37.41
19789;BME280;10054;59.332;18.244;2023-05-09T09:10:38;101794.64;;;19.27;36.72
19789;BME280;10054;59.332;18.244;2023-05-09T09:13:09;101787.59;;;19.21;36.39
19789;BME280;10054;59.332;18.244;2023-05-09T09:15:41;101790.98;;;19.28;36.32
19789;BME280;10054;59.332;18.244;2023-05-09T09:18:27;101785.11;;;19.34;35.29
19789;BME280;10054;59.332;18.244;2023-05-09T09:21:03;101783.52;;;19.37;36.33
19789;BME280;10054;59.332;18.244;2023-05-09T09:23:30;101784.25;;;19.40;36.00
19789;BME280;10054;59.332;18.244;2023-05-09T09:26:04;101779.27;;;19.52;36.40
19789;BME280;10054;59.332;18.244;2023-05-09T09:28:31;101773.41;;;19.58;36.01
19789;BME280;10054;59.332;18.244;2023-05-09T09:31:00;101770.48;;;19.61;35.26
19789;BME280;10054;59.332;18.244;2023-05-09T09:33:29;101765.24;;;19.65;34.69
19789;BME280;10054;59.332;18.244;2023-05-09T09:35:58;101770.34;;;19.68;35.43
19789;BME280;10054;59.332;18.244;2023-05-09T09:38:27;101763.78;;;19.66;35.13
19789;BME280;10054;59.332;18.244;2023-05-09T09:40:58;101758.06;;;19.65;34.90
19789;BME280;10054;59.332;18.244;2023-05-09T09:43:30;101764.38;;;19.70;35.49
19789;BME280;10054;59.332;18.244;2023-05-09T09:46:03;101761.31;;;19.75;35.39
19789;BME280;10054;59.332;18.244;2023-05-09T09:48:34;101764.23;;;19.77;34.88
19789;BME280;10054;59.332;18.244;2023-05-09T09:51:11;101763.02;;;19.76;34.58
19789;BME280;10054;59.332;18.244;2023-05-09T09:53:40;101764.36;;;19.76;34.99
19789;BME280;10054;59.332;18.244;2023-05-09T09:56:10;101747.92;;;19.75;35.22
19789;BME280;10054;59.332;18.244;2023-05-09T09:58:39;101752.54;;;19.78;35.31
19789;BME280;10054;59.332;18.244;2023-05-09T10:01:09;101760.81;;;19.81;35.14
19789;BME280;10054;59.332;18.244;2023-05-09T10:03:41;101757.88;;;19.84;35.28
19789;BME280;10054;59.332;18.244;2023-05-09T10:06:14;101755.69;;;19.83;35.31
19789;BME280;10054;59.332;18.244;2023-05-09T10:08:44;101751.80;;;19.82;34.63
19789;BME280;10054;59.332;18.244;2023-05-09T10:11:14;101746.70;;;19.79;34.45
19789;BME280;10054;59.332;18.244;2023-05-09T10:13:43;101749.48;;;19.83;34.92
19789;BME280;10054;59.332;18.244;2023-05-09T10:16:13;101754.70;;;19.84;35.39
19789;BME280;10054;59.332;18.244;2023-05-09T10:18:42;101743.27;;;19.82;35.34
19789;BME280;10054;59.332;18.244;2023-05-09T10:21:13;101743.61;;;19.89;35.54
19789;BME280;10054;59.332;18.244;2023-05-09T10:23:44;101742.61;;;19.95;35.06
19789;BME280;10054;59.332;18.244;2023-05-09T10:26:25;101736.80;;;20.06;35.78
19789;BME280;10054;59.332;18.244;2023-05-09T10:28:56;101736.91;;;20.10;35.82
19789;BME280;10054;59.332;18.244;2023-05-09T10:31:28;101731.41;;;20.11;35.56
19789;BME280;10054;59.332;18.244;2023-05-09T10:34:04;101737.09;;;20.18;36.01
19789;BME280;10054;59.332;18.244;2023-05-09T10:36:32;101735.77;;;20.18;35.56
19789;BME280;10054;59.332;18.244;2023-05-09T10:39:02;101734.68;;;20.15;35.21
19789;BME280;10054;59.332;18.244;2023-05-09T10:41:31;101729.52;;;20.23;35.66
19789;BME280;10054;59.332;18.244;2023-05-09T10:44:00;101748.64;;;20.24;35.59
19789;BME280;10054;59.332;18.244;2023-05-09T10:46:30;101741.84;;;20.20;35.32
19789;BME280;10054;59.332;18.244;2023-05-09T10:48:59;101735.43;;;20.11;35.42
19789;BME280;10054;59.332;18.244;2023-05-09T10:51:29;101729.78;;;20.05;35.77
19789;BME280;10054;59.332;18.244;2023-05-09T10:53:59;101727.48;;;20.00;36.10
19789;BME280;10054;59.332;18.244;2023-05-09T10:56:32;101728.70;;;20.01;36.04
19789;BME280;10054;59.332;18.244;2023-05-09T10:59:03;101721.37;;;20.04;36.32
19789;BME280;10054;59.332;18.244;2023-05-09T11:01:38;101719.13;;;20.09;35.80
19789;BME280;10054;59.332;18.244;2023-05-09T11:04:15;101723.28;;;20.07;35.23
19789;BME280;10054;59.332;18.244;2023-05-09T11:06:46;101719.13;;;20.09;35.56
19789;BME280;10054;59.332;18.244;2023-05-09T11:14:46;101705.24;;;20.09;34.79
19789;BME280;10054;59.332;18.244;2023-05-09T11:17:29;101712.40;;;20.14;35.71
19789;BME280;10054;59.332;18.244;2023-05-09T11:20:02;101713.08;;;20.22;36.38
19789;BME280;10054;59.332;18.244;2023-05-09T11:22:43;101709.52;;;20.27;37.06
19789;BME280;10054;59.332;18.244;2023-05-09T11:25:14;101708.67;;;20.26;36.59
19789;BME280;10054;59.332;18.244;2023-05-09T11:27:44;101715.20;;;20.33;36.91
19789;BME280;10054;59.332;18.244;2023-05-09T11:30:16;101717.25;;;20.35;36.55
19789;BME280;10054;59.332;18.244;2023-05-09T11:32:49;101704.70;;;20.36;36.25
19789;BME280;10054;59.332;18.244;2023-05-09T11:35:21;101712.75;;;20.36;36.03
19789;BME280;10054;59.332;18.244;2023-05-09T11:37:52;101709.34;;;20.34;36.01
19789;BME280;10054;59.332;18.244;2023-05-09T11:40:23;101710.98;;;20.25;36.42
19789;BME280;10054;59.332;18.244;2023-05-09T11:42:55;101701.69;;;20.14;36.00
19789;BME280;10054;59.332;18.244;2023-05-09T11:45:29;101700.14;;;20.06;36.49
19789;BME280;10054;59.332;18.244;2023-05-09T11:47:54;101701.33;;;20.13;37.00
19789;BME280;10054;59.332;18.244;2023-05-09T11:50:25;101692.80;;;20.14;36.80
19789;BME280;10054;59.332;18.244;2023-05-09T11:52:54;101692.66;;;20.00;36.12
19789;BME280;10054;59.332;18.244;2023-05-09T11:55:23;101693.78;;;19.97;36.41
19789;BME280;10054;59.332;18.244;2023-05-09T11:57:57;101704.26;;;19.95;36.44
19789;BME280;10054;59.332;18.244;2023-05-09T12:00:26;101696.05;;;19.81;36.15
19789;BME280;10054;59.332;18.244;2023-05-09T12:02:55;101703.75;;;19.75;36.48
19789;BME280;10054;59.332;18.244;2023-05-09T12:05:23;101703.52;;;19.72;35.53
19789;BME280;10054;59.332;18.244;2023-05-09T12:07:52;101702.44;;;19.69;36.31
19789;BME280;10054;59.332;18.244;2023-05-09T12:10:22;101702.09;;;19.62;35.79
19789;BME280;10054;59.332;18.244;2023-05-09T12:12:52;101703.28;;;19.69;36.24
19789;BME280;10054;59.332;18.244;2023-05-09T12:15:23;101691.95;;;19.72;36.33
19789;BME280;10054;59.332;18.244;2023-05-09T12:18:03;101695.38;;;19.68;35.47
19789;BME280;10054;59.332;18.244;2023-05-09T12:20:48;101698.91;;;19.68;35.81
19789;BME280;10054;59.332;18.244;2023-05-09T12:23:18;101701.69;;;19.73;35.83
19789;BME280;10054;59.332;18.244;2023-05-09T12:25:53;101692.68;;;19.74;35.40
19789;BME280;10054;59.332;18.244;2023-05-09T12:28:24;101696.70;;;19.74;34.80
19789;BME280;10054;59.332;18.244;2023-05-09T12:30:53;101688.84;;;19.61;34.93
19789;BME280;10054;59.332;18.244;2023-05-09T12:33:23;101688.50;;;19.54;33.72
19789;BME280;10054;59.332;18.244;2023-05-09T12:36:10;101683.28;;;19.42;34.74
19789;BME280;10054;59.332;18.244;2023-05-09T12:38:39;101686.30;;;19.22;34.34
19789;BME280;10054;59.332;18.244;2023-05-09T12:41:09;101690.80;;;19.16;35.02
19789;BME280;10054;59.332;18.244;2023-05-09T12:43:38;101689.48;;;19.10;34.67
19789;BME280;10054;59.332;18.244;2023-05-09T12:46:07;101687.69;;;18.94;35.02
19789;BME280;10054;59.332;18.244;2023-05-09T12:48:37;101692.30;;;18.97;35.93
19789;BME280;10054;59.332;18.244;2023-05-09T12:51:07;101681.72;;;19.01;35.72
19789;BME280;10054;59.332;18.244;2023-05-09T12:53:40;101684.50;;;19.06;35.41
19789;BME280;10054;59.332;18.244;2023-05-09T12:56:14;101675.55;;;18.79;34.56
19789;BME280;10054;59.332;18.244;2023-05-09T12:58:50;101675.92;;;18.74;36.03
19789;BME280;10054;59.332;18.244;2023-05-09T13:01:20;101676.28;;;18.75;35.97
19789;BME280;10054;59.332;18.244;2023-05-09T13:04:00;101665.10;;;18.76;36.07
19789;BME280;10054;59.332;18.244;2023-05-09T13:06:29;101680.16;;;18.82;36.30
19789;BME280;10054;59.332;18.244;2023-05-09T13:08:59;101677.24;;;18.85;36.33
19789;BME280;10054;59.332;18.244;2023-05-09T13:11:30;101674.09;;;18.80;35.95